createdAt,value
2023-01-13T00:00:21.969Z,9.26
2023-01-13T00:02:51.719Z,9.29
2023-01-13T00:05:18.702Z,9.28
2023-01-13T00:08:38.147Z,9.26
2023-01-13T00:11:11.764Z,9.27
2023-01-13T00:13:40.815Z,9.29
2023-01-13T00:16:13.300Z,9.25
2023-01-13T00:18:41.566Z,9.26
2023-01-13T00:21:22.983Z,9.25
2023-01-13T00:23:52.181Z,9.24
2023-01-13T00:26:35.693Z,9.15
2023-01-13T00:31:32.977Z,8.91
2023-01-13T00:34:12.976Z,8.87
2023-01-13T00:37:32.333Z,8.79
2023-01-13T00:45:53.727Z,8.65
2023-01-13T01:28:39.923Z,9.03
2023-01-13T01:35:08.821Z,9.03
2023-01-13T01:45:47.970Z,9.18
2023-01-13T01:57:17.617Z,9.15
2023-01-13T02:04:19.625Z,9.08
2023-01-13T02:08:00.761Z,9.10
2023-01-13T02:25:29.717Z,9.10
2023-01-13T03:08:57.279Z,9.32
2023-01-13T03:16:56.769Z,9.21
2023-01-13T03:32:31.576Z,9.17
2023-01-13T03:35:34.312Z,9.21
2023-01-13T03:41:42.773Z,9.27
2023-01-13T04:01:34.908Z,9.40
2023-01-13T04:05:21.655Z,9.34
2023-01-13T04:13:34.808Z,9.33
2023-01-13T04:16:12.206Z,9.40
2023-01-13T04:18:52.139Z,9.36
2023-01-13T04:32:59.493Z,9.41
2023-01-13T06:01:32.846Z,9.48
2023-01-13T06:04:06.272Z,9.50
2023-01-13T06:06:46.449Z,9.51
2023-01-13T06:09:32.364Z,9.46
2023-01-13T06:14:46.307Z,9.48
2023-01-13T06:17:42.162Z,9.45
2023-01-13T06:20:28.117Z,9.36
2023-01-13T06:26:09.446Z,9.25
2023-01-13T06:28:45.133Z,9.24
2023-01-13T06:31:22.714Z,9.17
2023-01-13T06:36:45.004Z,9.16
2023-01-13T06:39:17.193Z,9.15
2023-01-13T06:42:12.915Z,9.15
2023-01-13T06:44:50.645Z,9.14
2023-01-13T06:47:30.195Z,9.18
2023-01-13T06:52:33.102Z,9.17
2023-01-13T06:57:34.986Z,9.18
2023-01-13T07:00:04.658Z,9.19
2023-01-13T07:02:39.799Z,9.23
2023-01-13T07:05:24.306Z,9.25
2023-01-13T07:07:52.991Z,9.24
2023-01-13T07:10:26.932Z,9.24
2023-01-13T07:13:12.055Z,9.22
2023-01-13T07:15:39.233Z,9.23
2023-01-13T07:18:11.780Z,9.23
2023-01-13T07:20:56.185Z,9.20
2023-01-13T07:23:33.027Z,9.19
2023-01-13T07:26:09.733Z,9.18
2023-01-13T07:28:50.638Z,9.19
2023-01-13T07:31:23.675Z,9.18
2023-01-13T07:34:00.337Z,9.19
2023-01-13T07:36:30.732Z,9.20
2023-01-13T07:39:04.391Z,9.17
2023-01-13T07:41:53.590Z,9.13
2023-01-13T07:44:29.059Z,9.16
2023-01-13T07:49:55.976Z,9.19
2023-01-13T07:52:29.453Z,9.16
2023-01-13T07:54:59.462Z,9.17
2023-01-13T07:57:39.276Z,9.18
2023-01-13T08:00:13.049Z,9.22
2023-01-13T08:02:52.908Z,9.21
2023-01-13T08:05:20.184Z,9.25
2023-01-13T08:07:48.969Z,9.25
2023-01-13T08:10:22.292Z,9.26
2023-01-13T08:15:51.486Z,9.26
2023-01-13T08:18:22.125Z,9.29
2023-01-13T08:20:49.213Z,9.28
2023-01-13T08:23:16.758Z,9.31
2023-01-13T08:25:54.407Z,9.32
2023-01-13T08:28:25.849Z,9.31
2023-01-13T08:30:59.248Z,9.30
2023-01-13T08:33:38.306Z,9.30
2023-01-13T08:36:15.464Z,9.28
2023-01-13T08:41:52.723Z,9.25
2023-01-13T08:44:34.263Z,9.20
2023-01-13T08:47:06.951Z,9.20
2023-01-13T08:49:42.722Z,9.00
2023-01-13T08:52:15.063Z,8.93
2023-01-13T08:54:44.901Z,8.83
2023-01-13T08:57:23.352Z,8.74
2023-01-13T08:59:56.089Z,8.60
2023-01-13T09:02:35.593Z,8.52
2023-01-13T09:05:10.736Z,8.43
2023-01-13T09:16:26.750Z,8.08
2023-01-13T10:07:18.121Z,7.36
2023-01-13T10:09:51.239Z,7.34
2023-01-13T10:12:41.422Z,7.47
2023-01-13T10:15:15.827Z,7.48
2023-01-13T10:17:45.321Z,7.46
2023-01-13T10:20:36.307Z,7.58
2023-01-13T10:23:11.297Z,7.59
2023-01-13T10:26:15.504Z,7.68
2023-01-13T10:28:42.080Z,7.64
2023-01-13T10:31:12.504Z,7.71
2023-01-13T10:33:47.204Z,7.68
2023-01-13T10:36:29.276Z,7.64
2023-01-13T10:39:09.430Z,7.70
2023-01-13T10:41:36.221Z,7.76
2023-01-13T10:44:17.537Z,7.75
2023-01-13T10:49:36.146Z,7.76
2023-01-13T10:52:04.455Z,7.93
2023-01-13T10:54:31.473Z,7.92
2023-01-13T10:57:22.493Z,7.96
2023-01-13T10:59:49.321Z,7.94
2023-01-13T11:02:36.723Z,7.94
2023-01-13T11:05:21.022Z,8.04
2023-01-13T11:10:31.326Z,8.20
2023-01-13T11:13:23.193Z,8.22
2023-01-13T11:15:56.189Z,8.32
2023-01-13T11:19:14.108Z,8.33
2023-01-13T11:21:46.799Z,8.46
2023-01-13T11:24:37.693Z,8.58
2023-01-13T11:27:07.427Z,8.64
2023-01-13T11:32:34.440Z,8.69
2023-01-13T11:37:52.534Z,8.75
2023-01-13T11:40:34.208Z,8.74
2023-01-13T11:43:45.443Z,8.72
2023-01-13T11:46:17.597Z,8.81
2023-01-13T11:58:09.321Z,8.74
2023-01-13T12:00:57.923Z,8.88
2023-01-13T12:03:40.155Z,8.99
2023-01-13T12:06:27.675Z,9.05
2023-01-13T12:09:44.782Z,8.96
2023-01-13T12:12:37.630Z,8.78
2023-01-13T12:15:15.203Z,8.69
2023-01-13T12:18:19.692Z,8.54
2023-01-13T12:20:55.545Z,8.57
2023-01-13T12:23:36.465Z,8.63
2023-01-13T12:27:12.501Z,8.47
2023-01-13T12:29:42.678Z,8.42
2023-01-13T12:32:17.939Z,8.44
2023-01-13T12:35:18.122Z,8.42
2023-01-13T12:38:06.998Z,8.43
2023-01-13T12:40:42.208Z,8.32
2023-01-13T12:43:38.179Z,8.41
2023-01-13T12:50:45.498Z,8.38
2023-01-13T12:53:47.487Z,8.42
2023-01-13T12:56:38.734Z,8.54
2023-01-13T12:59:28.394Z,8.50
2023-01-13T13:02:35.464Z,8.34
2023-01-13T13:05:15.376Z,8.25
2023-01-13T13:07:46.504Z,8.09
2023-01-13T13:10:56.140Z,7.82
2023-01-13T13:13:43.521Z,7.74
2023-01-13T13:16:29.456Z,7.70
2023-01-13T13:19:17.704Z,7.57
2023-01-13T13:22:25.987Z,7.52
2023-01-13T13:24:52.405Z,7.42
2023-01-13T13:27:31.933Z,7.45
2023-01-13T13:30:14.293Z,7.51
2023-01-13T13:33:04.560Z,7.62
2023-01-13T13:36:08.469Z,7.64
2023-01-13T13:39:22.087Z,7.77
2023-01-13T13:42:38.153Z,7.84
2023-01-13T13:45:40.059Z,7.84
2023-01-13T13:51:46.728Z,7.90
2023-01-13T13:54:19.867Z,7.95
2023-01-13T13:56:50.213Z,7.94
2023-01-13T13:59:30.778Z,7.90
2023-01-13T14:03:05.071Z,7.83
2023-01-13T14:06:34.539Z,7.73
2023-01-13T14:09:35.551Z,7.65
2023-01-13T14:12:47.635Z,7.55
2023-01-13T14:15:56.327Z,7.54
2023-01-13T14:18:23.295Z,7.60
2023-01-13T14:21:28.810Z,7.65
2023-01-13T14:24:10.644Z,7.73
2023-01-13T14:26:37.175Z,7.76
2023-01-13T14:29:06.346Z,7.83
2023-01-13T14:31:43.399Z,7.99
2023-01-13T14:34:32.911Z,7.90
2023-01-13T14:37:23.541Z,7.82
2023-01-13T14:40:29.824Z,7.77
2023-01-13T14:46:10.062Z,7.66
2023-01-13T14:51:45.087Z,7.57
2023-01-13T14:55:06.855Z,7.54
2023-01-13T15:00:51.956Z,7.38
2023-01-13T15:03:34.352Z,7.35
2023-01-13T15:06:29.411Z,7.37
2023-01-13T15:11:42.660Z,7.32
2023-01-13T15:14:41.460Z,7.25
2023-01-13T15:17:26.371Z,7.28
2023-01-13T15:19:56.421Z,7.20
2023-01-13T15:28:21.412Z,6.95
2023-01-13T15:36:44.954Z,6.83
2023-01-13T15:39:26.639Z,6.71
2023-01-13T15:42:30.474Z,6.71
2023-01-13T15:48:54.729Z,6.53
2023-01-13T15:51:58.836Z,6.35
2023-01-13T16:03:33.877Z,6.53
2023-01-13T16:06:54.563Z,6.56
2023-01-13T16:10:29.963Z,6.44
2023-01-13T16:13:00.159Z,6.48
2023-01-13T16:16:33.067Z,6.40
2023-01-13T16:19:26.554Z,6.31
2023-01-13T16:21:59.693Z,6.26
2023-01-13T16:24:32.221Z,6.28
2023-01-13T16:27:34.014Z,6.28
2023-01-13T16:32:35.537Z,6.47
2023-01-13T16:35:12.506Z,6.53
2023-01-13T16:38:01.684Z,6.47
2023-01-13T16:40:37.127Z,6.42
2023-01-13T16:49:41.858Z,6.29
2023-01-13T17:37:49.788Z,5.77
2023-01-13T17:41:58.510Z,5.75
2023-01-13T18:11:59.937Z,5.79
2023-01-13T18:50:20.582Z,6.61
2023-01-13T19:02:15.461Z,6.86
2023-01-13T19:05:53.571Z,6.87
2023-01-13T19:16:08.340Z,7.05
2023-01-13T19:18:52.697Z,6.93
2023-01-13T19:25:37.122Z,7.00
2023-01-13T19:37:54.989Z,6.89
2023-01-13T19:43:39.206Z,6.89
2023-01-13T19:49:54.513Z,6.88
2023-01-13T19:52:31.399Z,6.83
2023-01-13T19:59:20.611Z,6.77
2023-01-13T20:05:25.153Z,6.77
2023-01-13T20:14:31.563Z,6.80
2023-01-13T20:17:14.013Z,6.78
2023-01-13T20:20:01.047Z,6.79
2023-01-13T20:23:17.665Z,6.79
2023-01-13T20:26:03.097Z,6.78
2023-01-13T20:28:49.991Z,6.79
2023-01-13T20:31:23.586Z,6.86
2023-01-13T20:34:49.344Z,6.85
2023-01-13T20:37:31.339Z,6.84
2023-01-13T20:43:44.539Z,6.80
2023-01-13T20:46:28.983Z,6.83
2023-01-13T20:49:38.492Z,6.91
2023-01-13T20:52:15.158Z,6.86
2023-01-13T21:01:17.087Z,6.85
2023-01-13T21:04:05.319Z,6.86
2023-01-13T21:07:07.365Z,6.85
2023-01-13T21:09:39.582Z,6.89
2023-01-13T21:12:43.457Z,6.84
2023-01-13T21:15:26.124Z,6.90
2023-01-13T21:22:14.648Z,6.86
2023-01-13T21:25:07.720Z,6.78
2023-01-13T21:30:33.085Z,6.85
2023-01-13T21:33:10.587Z,6.85
2023-01-13T21:38:39.624Z,6.74
2023-01-13T21:41:40.321Z,6.74
2023-01-13T21:44:57.081Z,6.79
2023-01-13T21:50:40.837Z,6.78
2023-01-13T21:53:36.417Z,6.82
2023-01-13T21:56:26.739Z,6.77
2023-01-13T21:59:02.360Z,6.81
2023-01-13T22:04:27.796Z,6.77
2023-01-13T22:10:15.362Z,6.78
2023-01-13T22:12:53.958Z,6.69
2023-01-13T22:18:24.953Z,6.82
2023-01-13T22:21:15.854Z,6.79
2023-01-13T22:24:09.855Z,6.74
2023-01-13T22:26:54.432Z,6.73
2023-01-13T22:29:55.611Z,6.64
2023-01-13T22:32:32.105Z,6.52
2023-01-13T22:35:22.126Z,6.45
2023-01-13T22:40:42.026Z,6.32
2023-01-13T22:43:23.994Z,6.31
2023-01-13T22:46:23.035Z,6.36
2023-01-13T22:54:17.227Z,6.47
2023-01-13T22:56:49.386Z,6.45
2023-01-13T22:59:29.513Z,6.40
2023-01-13T23:02:08.243Z,6.45
2023-01-13T23:04:48.007Z,6.45
2023-01-13T23:07:41.685Z,6.45
2023-01-13T23:10:22.783Z,6.38
2023-01-13T23:12:53.932Z,6.42
2023-01-13T23:15:31.572Z,6.34
2023-01-13T23:18:13.038Z,6.40
2023-01-13T23:20:56.919Z,6.36
2023-01-13T23:23:31.064Z,6.34
2023-01-13T23:26:04.560Z,6.31
2023-01-13T23:28:50.479Z,6.26
2023-01-13T23:31:25.741Z,6.39
2023-01-13T23:36:34.885Z,6.27
2023-01-13T23:39:14.833Z,6.29
2023-01-13T23:41:55.092Z,6.20
2023-01-13T23:44:31.053Z,6.21
2023-01-13T23:47:16.145Z,6.30
2023-01-13T23:49:49.985Z,6.32
2023-01-13T23:52:24.180Z,6.30
2023-01-13T23:57:41.397Z,6.19
